Time;durP1;ratioP1;P1;durP2;ratioP2;P2;SDS_P1;SDS_P2;PMS_P1;PMS_P2;Temp;Humidity;BMP_temperature;BMP_pressure;BME280_temperature;BME280_humidity;BME280_pressure;Samples;Min_cycle;Max_cycle;Signal;HPM_P1;HPM_P2
2023/09/09 00:00:28;;;;;;;;;18.00;17.00;;;;;25.02;51.39;101429.67;110274;1265;18585;-37
2023/09/09 00:03:15;;;;;;;;;23.50;21.50;;;;;25.02;51.29;101429.41;110286;1265;21555;-37
2023/09/09 00:05:43;;;;;;;;;22.00;22.00;;;;;25.01;51.45;101432.09;110239;1251;20714;-37
2023/09/09 00:08:10;;;;;;;;;;;;;;;25.02;51.29;101432.64;110233;1265;23295;-37
2023/09/09 00:10:37;;;;;;;;;20.00;19.00;;;;;25.03;51.35;101434.05;110247;1260;19496;-37
2023/09/09 00:13:05;;;;;;;;;21.50;20.50;;;;;25.06;51.37;101435.09;110205;1251;20911;-37
2023/09/09 00:15:33;;;;;;;;;23.50;22.50;;;;;25.04;51.20;101434.27;110197;1260;19994;-37
2023/09/09 00:18:00;;;;;;;;;19.00;19.00;;;;;25.04;51.36;101438.27;110200;1250;20111;-37
2023/09/09 00:20:28;;;;;;;;;22.50;20.00;;;;;25.04;51.32;101437.83;110172;1265;21974;-37
2023/09/09 00:22:55;;;;;;;;;18.00;18.00;;;;;25.03;51.41;101438.99;110175;1265;22809;-37
2023/09/09 00:25:23;;;;;;;;;20.00;20.00;;;;;25.03;51.19;101436.30;110214;1260;20211;-37
2023/09/09 00:27:50;;;;;;;;;22.00;20.00;;;;;25.04;51.35;101439.32;110246;1251;19375;-38
2023/09/09 00:30:17;;;;;;;;;23.00;23.00;;;;;25.06;51.16;101439.20;109857;1265;442273;-38
2023/09/09 00:32:45;;;;;;;;;22.00;22.00;;;;;25.05;51.34;101440.73;110191;1251;20032;-38
2023/09/09 00:35:12;;;;;;;;;17.50;17.50;;;;;25.04;51.37;101440.14;110168;1265;20726;-38
2023/09/09 00:37:39;;;;;;;;;22.00;19.00;;;;;25.07;51.19;101439.80;110189;1265;18913;-37
2023/09/09 00:40:07;;;;;;;;;26.00;22.00;;;;;25.04;51.11;101438.83;110211;1265;22613;-38
2023/09/09 00:42:34;;;;;;;;;19.33;18.00;;;;;25.04;51.36;101438.39;110207;1257;20694;-38
2023/09/09 00:45:02;;;;;;;;;24.00;23.00;;;;;25.02;51.31;101438.30;110169;1265;22165;-38
2023/09/09 00:47:29;;;;;;;;;21.00;20.00;;;;;25.02;51.41;101438.13;110195;1251;20250;-37
2023/09/09 00:49:56;;;;;;;;;21.50;19.50;;;;;25.02;51.22;101436.20;110194;1250;22012;-38
2023/09/09 00:52:24;;;;;;;;;22.00;20.00;;;;;25.01;51.09;101430.34;110140;1250;20047;-37
2023/09/09 00:54:51;;;;;;;;;23.00;19.00;;;;;25.01;51.05;101432.60;110248;1251;20024;-37
2023/09/09 00:57:18;;;;;;;;;22.00;22.00;;;;;25.03;51.08;101432.14;110209;1250;20830;-37
2023/09/09 00:59:45;;;;;;;;;23.00;22.00;;;;;25.03;50.95;101438.78;110231;1258;19872;-37
2023/09/09 01:02:13;;;;;;;;;22.00;21.50;;;;;25.01;51.20;101437.14;110176;1265;18781;-37
2023/09/09 01:04:40;;;;;;;;;22.00;22.00;;;;;25.02;50.92;101436.48;110203;1265;19363;-37
2023/09/09 01:07:07;;;;;;;;;26.50;25.50;;;;;25.00;51.13;101435.73;110176;1265;18841;-37
2023/09/09 01:09:35;;;;;;;;;23.50;21.00;;;;;25.01;50.96;101436.05;110189;1265;18796;-37
2023/09/09 01:12:03;;;;;;;;;20.00;20.00;;;;;25.03;50.77;101441.02;110193;1251;20798;-38
2023/09/09 01:14:31;;;;;;;;;27.00;24.00;;;;;25.01;51.01;101439.27;110189;1265;18585;-38
2023/09/09 01:16:58;;;;;;;;;20.00;20.00;;;;;25.00;50.84;101442.96;110181;1250;20251;-38
2023/09/09 01:19:26;;;;;;;;;23.50;22.50;;;;;25.03;50.78;101438.77;110191;1251;21094;-37
2023/09/09 01:21:53;;;;;;;;;23.50;22.50;;;;;25.00;50.76;101439.18;110187;1250;20278;-37
2023/09/09 01:24:20;;;;;;;;;23.00;23.00;;;;;25.02;50.60;101438.56;110199;1260;20059;-38
2023/09/09 01:26:48;;;;;;;;;22.00;19.00;;;;;25.00;50.72;101436.27;110209;1265;22924;-38
2023/09/09 01:29:15;;;;;;;;;22.00;22.00;;;;;25.01;50.70;101434.07;110180;1265;20887;-38
2023/09/09 01:31:42;;;;;;;;;25.00;21.00;;;;;25.02;50.71;101439.88;110197;1251;20173;-38
2023/09/09 01:34:10;;;;;;;;;23.00;21.00;;;;;24.99;50.60;101438.69;110192;1265;19336;-37
2023/09/09 01:36:37;;;;;;;;;23.00;20.00;;;;;24.99;50.50;101440.55;110199;1251;20160;-37
2023/09/09 01:39:05;;;;;;;;;24.00;23.00;;;;;25.02;50.39;101440.42;110196;1265;18738;-37
2023/09/09 01:41:32;;;;;;;;;19.00;19.00;;;;;24.99;50.61;101440.16;110192;1251;20803;-37
2023/09/09 01:44:00;;;;;;;;;23.00;22.00;;;;;24.97;50.74;101442.97;110194;1254;22538;-37
2023/09/09 01:46:27;;;;;;;;;21.00;19.00;;;;;24.97;50.71;101443.41;110197;1251;20283;-37
2023/09/09 01:48:54;;;;;;;;;24.00;22.00;;;;;24.98;50.55;101443.02;110200;1266;22069;-37
2023/09/09 01:51:22;;;;;;;;;21.00;21.00;;;;;24.96;50.78;101439.23;110195;1250;20106;-37
2023/09/09 01:53:49;;;;;;;;;28.00;25.50;;;;;24.97;50.69;101442.20;110186;1250;20324;-37
2023/09/09 01:56:16;;;;;;;;;21.33;19.67;;;;;25.00;50.60;101441.70;110182;1265;19365;-37
2023/09/09 01:58:44;;;;;;;;;21.00;18.00;;;;;24.98;50.68;101441.88;110183;1251;22181;-37
2023/09/09 02:01:11;;;;;;;;;20.00;19.00;;;;;24.99;50.54;101444.45;110163;1249;23027;-38
2023/09/09 02:03:38;;;;;;;;;22.00;21.50;;;;;24.99;50.55;101443.45;110202;1251;20737;-37
2023/09/09 02:06:06;;;;;;;;;18.00;18.00;;;;;24.97;50.35;101439.63;110193;1260;20129;-37
2023/09/09 02:08:33;;;;;;;;;20.00;19.00;;;;;24.98;50.27;101443.19;110167;1249;18702;-37
2023/09/09 02:11:00;;;;;;;;;21.00;20.00;;;;;24.97;50.39;101435.67;110185;1260;21095;-37
2023/09/09 02:13:28;;;;;;;;;19.50;19.00;;;;;24.98;50.40;101434.02;110224;1265;18633;-39
2023/09/09 02:15:55;;;;;;;;;21.50;19.00;;;;;24.99;50.48;101440.22;110181;1251;20239;-37
2023/09/09 02:18:22;;;;;;;;;22.00;21.00;;;;;24.97;50.24;101435.84;110215;1250;20820;-39
2023/09/09 02:20:50;;;;;;;;;21.00;18.50;;;;;24.97;50.18;101437.36;110194;1260;19961;-37
2023/09/09 02:23:17;;;;;;;;;18.00;17.50;;;;;24.98;50.15;101436.94;110221;1250;20239;-37
2023/09/09 02:25:45;;;;;;;;;21.00;19.50;;;;;24.98;50.42;101441.70;110208;1250;22808;-37
2023/09/09 02:28:13;;;;;;;;;21.00;19.00;;;;;24.96;50.35;101439.23;110191;1260;19875;-38
2023/09/09 02:30:40;;;;;;;;;21.00;19.50;;;;;24.98;50.19;101439.73;110214;1265;18731;-38
2023/09/09 02:33:08;;;;;;;;;19.00;17.00;;;;;24.97;50.15;101434.08;110217;1249;21156;-38
2023/09/09 02:35:35;;;;;;;;;22.67;21.00;;;;;24.96;50.26;101434.30;110166;1249;19964;-38
2023/09/09 02:38:02;;;;;;;;;18.00;18.00;;;;;24.95;50.17;101434.73;110244;1251;20192;-37
2023/09/09 02:40:29;;;;;;;;;18.50;17.00;;;;;24.96;49.98;101438.73;110259;1265;19578;-38
2023/09/09 02:42:57;;;;;;;;;18.00;17.00;;;;;24.96;49.87;101436.16;110301;1251;20072;-38
2023/09/09 02:45:24;;;;;;;;;18.33;18.00;;;;;24.94;50.00;101436.33;110276;1265;22399;-38
2023/09/09 02:47:51;;;;;;;;;18.00;18.00;;;;;24.95;49.83;101437.80;110175;1261;20754;-38
2023/09/09 02:50:19;;;;;;;;;22.00;19.00;;;;;24.95;49.92;101440.98;110223;1250;21347;-36
2023/09/09 02:52:46;;;;;;;;;21.50;21.50;;;;;24.95;49.93;101442.84;110209;1260;20054;-37
2023/09/09 02:55:13;;;;;;;;;23.00;22.00;;;;;24.96;49.99;101440.81;110191;1265;19377;-37
2023/09/09 02:57:41;;;;;;;;;22.00;21.00;;;;;24.94;49.87;101436.55;110208;1265;18603;-37
2023/09/09 03:00:08;;;;;;;;;21.00;19.00;;;;;24.93;49.82;101438.35;110247;1250;19981;-37
2023/09/09 03:02:35;;;;;;;;;19.00;18.00;;;;;24.93;49.85;101438.80;110247;1250;19427;-37
2023/09/09 03:05:04;;;;;;;;;22.00;19.00;;;;;24.92;49.64;101439.67;110253;1251;20049;-37
2023/09/09 03:07:31;;;;;;;;;23.50;20.50;;;;;24.91;49.73;101441.77;110187;1251;20292;-37
2023/09/09 03:09:58;;;;;;;;;19.00;18.00;;;;;24.91;49.69;101445.82;110205;1265;20792;-37
2023/09/09 03:12:26;;;;;;;;;19.00;19.00;;;;;24.89;49.64;101449.62;110192;1265;22239;-37
2023/09/09 03:14:53;;;;;;;;;19.00;17.00;;;;;24.91;49.76;101444.23;110213;1259;20010;-37
2023/09/09 03:17:20;;;;;;;;;;;;;;;24.88;49.61;101447.48;110202;1250;19359;-38
2023/09/09 03:19:48;;;;;;;;;21.50;21.00;;;;;24.88;49.56;101448.63;110202;1265;22045;-37
2023/09/09 03:22:15;;;;;;;;;18.00;17.00;;;;;24.88;49.48;101449.73;110187;1251;20182;-37
2023/09/09 03:24:43;;;;;;;;;26.00;24.67;;;;;24.88;49.54;101446.33;110182;1250;20781;-37
2023/09/09 03:27:10;;;;;;;;;21.00;19.00;;;;;24.86;49.51;101450.67;110215;1265;19041;-37
2023/09/09 03:29:37;;;;;;;;;23.00;21.00;;;;;24.86;49.36;101452.98;110224;1259;19997;-38
2023/09/09 03:32:04;;;;;;;;;21.00;19.00;;;;;24.86;49.59;101452.98;110184;1251;20816;-38
2023/09/09 03:34:32;;;;;;;;;18.00;17.00;;;;;24.86;49.44;101449.14;110213;1265;22233;-38
2023/09/09 03:36:59;;;;;;;;;19.00;18.50;;;;;24.85;49.59;101444.76;110234;1251;18729;-38
2023/09/09 03:39:27;;;;;;;;;21.00;19.00;;;;;24.87;49.42;101448.19;110197;1260;21962;-37
2023/09/09 03:41:55;;;;;;;;;26.50;24.50;;;;;24.90;49.48;101452.73;110200;1251;20091;-38
2023/09/09 03:44:22;;;;;;;;;22.00;21.00;;;;;24.88;49.19;101453.67;110257;1260;20118;-37
2023/09/09 03:46:49;;;;;;;;;24.00;23.00;;;;;24.89;49.37;101447.41;110224;1251;20618;-38
2023/09/09 03:49:16;;;;;;;;;22.00;22.00;;;;;24.87;49.39;101446.61;110226;1250;20086;-38
2023/09/09 03:51:44;;;;;;;;;28.00;23.00;;;;;24.87;49.12;101447.59;110233;1251;21593;-38
2023/09/09 03:54:12;;;;;;;;;22.00;22.00;;;;;24.85;49.22;101448.76;110197;1265;22549;-38
2023/09/09 03:56:39;;;;;;;;;26.00;23.50;;;;;24.85;49.30;101447.83;110180;1250;20107;-38
2023/09/09 03:59:06;;;;;;;;;22.00;21.00;;;;;24.84;49.21;101447.23;110209;1265;20305;-38
2023/09/09 04:01:33;;;;;;;;;19.00;19.00;;;;;24.85;48.98;101447.27;110287;1260;20752;-38
2023/09/09 04:04:01;;;;;;;;;19.00;17.50;;;;;24.85;49.04;101444.98;110199;1265;18584;-37
2023/09/09 04:06:28;;;;;;;;;21.50;19.00;;;;;24.82;49.10;101443.61;110226;1251;22063;-37
2023/09/09 04:08:57;;;;;;;;;21.00;17.00;;;;;24.84;49.11;101444.92;110257;1265;19383;-37
2023/09/09 04:11:24;;;;;;;;;21.50;21.50;;;;;24.83;49.19;101449.80;110269;1251;20366;-37
2023/09/09 04:13:52;;;;;;;;;19.00;18.00;;;;;24.83;48.98;101448.71;110305;1251;20021;-37
2023/09/09 04:16:19;;;;;;;;;22.00;21.00;;;;;24.83;49.11;101449.41;110277;1250;20796;-37
2023/09/09 04:18:46;;;;;;;;;21.50;20.00;;;;;24.83;48.96;101448.16;110157;1265;18693;-37
2023/09/09 04:21:14;;;;;;;;;20.00;19.00;;;;;24.82;48.86;101447.99;110247;1251;20288;-36
2023/09/09 04:23:41;;;;;;;;;22.00;20.00;;;;;24.82;49.16;101453.53;110224;1251;20780;-39
2023/09/09 04:26:08;;;;;;;;;23.00;21.00;;;;;24.81;49.13;101456.93;110223;1250;20074;-37
2023/09/09 04:28:36;;;;;;;;;19.00;17.00;;;;;24.81;48.86;101456.45;110241;1260;20301;-38
2023/09/09 04:31:03;;;;;;;;;22.00;20.00;;;;;24.81;48.93;101451.52;110196;1249;20844;-39
2023/09/09 04:33:30;;;;;;;;;18.00;18.00;;;;;24.83;48.80;101452.60;110144;1251;20069;-38
2023/09/09 04:35:57;;;;;;;;;18.50;18.00;;;;;24.84;49.02;101450.08;110173;1250;20208;-38
2023/09/09 04:38:25;;;;;;;;;29.50;28.00;;;;;24.82;49.09;101448.83;110287;1265;19372;-38
2023/09/09 04:40:52;;;;;;;;;33.33;30.00;;;;;24.89;48.65;101444.84;110289;1250;21549;-37
2023/09/09 04:43:20;;;;;;;;;35.00;32.00;;;;;24.89;48.22;101443.80;110281;1250;20904;-37
2023/09/09 04:45:48;;;;;;;;;35.00;34.00;;;;;24.75;48.62;101446.00;110276;1251;20896;-39
2023/09/09 04:48:15;;;;;;;;;43.00;35.00;;;;;24.69;48.60;101446.41;110177;1265;18785;-38
2023/09/09 04:50:42;;;;;;;;;39.50;38.00;;;;;24.62;48.82;101444.08;110182;1265;19250;-38
2023/09/09 04:53:10;;;;;;;;;32.00;30.00;;;;;24.53;49.05;101449.48;110215;1250;20737;-38
2023/09/09 04:55:37;;;;;;;;;48.67;42.00;;;;;24.45;49.00;101446.54;110207;1249;18865;-38
2023/09/09 04:58:04;;;;;;;;;51.00;44.50;;;;;23.84;50.30;101445.12;110199;1260;20104;-38
2023/09/09 05:00:32;;;;;;;;;47.00;43.00;;;;;23.49;51.55;101452.08;110201;1265;20565;-36
2023/09/09 05:02:59;;;;;;;;;46.00;42.00;;;;;23.31;52.05;101450.73;110112;1250;18550;-37
2023/09/09 05:05:26;;;;;;;;;48.50;41.50;;;;;23.14;52.47;101448.39;110192;1250;20207;-37
2023/09/09 05:07:54;;;;;;;;;52.00;45.00;;;;;23.36;52.22;101452.60;110173;1251;20957;-36
2023/09/09 05:10:22;;;;;;;;;56.00;45.50;;;;;23.36;52.41;101458.23;110188;1250;20074;-37
2023/09/09 05:12:50;;;;;;;;;50.50;44.00;;;;;23.35;52.22;101457.41;110227;1250;21629;-37
2023/09/09 05:15:17;;;;;;;;;56.00;46.00;;;;;23.01;53.26;101455.20;110192;1251;22790;-36
2023/09/09 05:17:44;;;;;;;;;49.00;44.00;;;;;22.83;53.70;101458.22;110239;1251;20321;-37
2023/09/09 05:20:12;;;;;;;;;54.00;44.00;;;;;22.80;54.16;101460.73;110265;1250;20505;-36
2023/09/09 05:22:39;;;;;;;;;47.00;43.00;;;;;22.86;54.04;101463.55;110173;1251;20715;-36
2023/09/09 05:25:06;;;;;;;;;46.50;42.00;;;;;22.88;54.33;101461.75;110200;1250;20068;-36
2023/09/09 05:27:34;;;;;;;;;50.67;41.67;;;;;22.88;54.16;101461.81;110183;1265;19016;-36
2023/09/09 05:30:01;;;;;;;;;47.50;43.00;;;;;22.84;54.43;101458.56;110127;1251;22020;-37
2023/09/09 05:32:28;;;;;;;;;45.50;42.00;;;;;22.86;54.11;101460.60;110304;1259;20201;-37
2023/09/09 05:34:56;;;;;;;;;46.00;42.00;;;;;22.98;54.10;101459.44;110268;1251;20389;-36
2023/09/09 05:37:26;;;;;;;;;45.00;41.00;;;;;22.86;54.13;101456.61;110261;1249;19406;-36
2023/09/09 05:39:53;;;;;;;;;45.00;41.00;;;;;22.66;55.04;101456.11;110270;1250;20020;-37
2023/09/09 05:42:21;;;;;;;;;45.50;41.00;;;;;22.45;55.36;101456.64;110269;1265;18780;-36
2023/09/09 05:44:48;;;;;;;;;43.00;39.50;;;;;22.36;55.76;101452.39;110293;1250;20786;-36
2023/09/09 05:47:15;;;;;;;;;47.50;43.00;;;;;22.22;56.19;101452.95;110216;1265;18713;-36
2023/09/09 05:49:43;;;;;;;;;42.50;41.00;;;;;22.14;56.10;101454.48;110231;1265;18765;-36
2023/09/09 05:52:11;;;;;;;;;50.00;43.00;;;;;22.31;56.07;101452.80;110191;1265;19383;-37
2023/09/09 05:54:39;;;;;;;;;44.00;40.50;;;;;22.54;55.32;101454.67;110276;1265;18672;-38
2023/09/09 05:57:07;;;;;;;;;48.00;41.50;;;;;22.44;55.35;101454.23;110247;1250;21716;-37
2023/09/09 05:59:35;;;;;;;;;43.00;40.00;;;;;22.42;55.51;101455.48;110206;1250;20830;-38
2023/09/09 06:02:02;;;;;;;;;45.00;42.00;;;;;22.62;54.94;101450.09;110140;1250;20093;-39
2023/09/09 06:04:29;;;;;;;;;40.67;38.33;;;;;22.76;54.62;101447.14;110166;1265;18811;-38
2023/09/09 06:06:57;;;;;;;;;260.00;195.00;;;;;22.66;54.74;101445.19;110244;1265;19377;-37
2023/09/09 06:09:24;;;;;;;;;268.00;184.50;;;;;22.66;54.53;101442.12;110229;1251;22210;-38
2023/09/09 06:11:51;;;;;;;;;285.00;207.50;;;;;22.37;55.10;101444.85;110198;1265;18781;-38
2023/09/09 06:14:19;;;;;;;;;98.33;72.67;;;;;22.35;55.08;101442.02;110158;1265;19271;-38
2023/09/09 06:16:46;;;;;;;;;77.00;59.50;;;;;22.54;54.58;101441.14;110157;1251;18944;-38
2023/09/09 06:19:14;;;;;;;;;51.00;42.00;;;;;22.78;54.01;101442.42;110278;1265;19068;-38
2023/09/09 06:21:41;;;;;;;;;44.00;39.00;;;;;22.78;53.95;101441.86;110273;1260;20974;-38
2023/09/09 06:24:08;;;;;;;;;39.50;37.50;;;;;22.82;54.08;101443.15;110299;1250;20055;-38
2023/09/09 06:26:36;;;;;;;;;43.00;38.00;;;;;22.81;53.67;101444.66;110282;1251;20116;-38
2023/09/09 06:29:03;;;;;;;;;44.00;42.00;;;;;22.73;54.05;101447.58;110248;1266;19366;-38
2023/09/09 06:31:30;;;;;;;;;45.67;41.33;;;;;22.30;55.52;101453.73;110229;1265;19962;-37
2023/09/09 06:33:57;;;;;;;;;41.00;40.50;;;;;22.03;56.42;101448.77;110204;1265;19009;-39
2023/09/09 06:36:25;;;;;;;;;45.00;41.50;;;;;22.23;56.25;101444.50;110185;1250;20788;-39
2023/09/09 06:38:52;;;;;;;;;39.00;38.00;;;;;22.67;54.93;101446.77;110160;1265;20045;-39
2023/09/09 06:41:19;;;;;;;;;40.50;38.50;;;;;22.86;54.70;101446.11;110206;1251;22367;-37
2023/09/09 06:43:48;;;;;;;;;42.50;37.00;;;;;22.93;54.72;101445.33;110199;1265;21980;-37
2023/09/09 06:46:15;;;;;;;;;44.00;39.00;;;;;22.72;54.87;101446.30;110209;1251;23074;-38
2023/09/09 06:48:42;;;;;;;;;43.00;41.00;;;;;22.58;55.20;101450.01;110226;1251;20351;-37
2023/09/09 06:51:10;;;;;;;;;38.00;34.50;;;;;22.61;55.20;101451.23;110198;1251;20772;-37
2023/09/09 06:53:37;;;;;;;;;38.50;37.50;;;;;22.70;55.31;101451.50;110218;1265;22857;-38
2023/09/09 06:56:05;;;;;;;;;32.00;30.00;;;;;22.88;55.05;101451.54;110220;1265;18714;-37
2023/09/09 06:58:32;;;;;;;;;31.00;29.00;;;;;23.05;54.70;101452.69;110197;1260;21253;-39
2023/09/09 07:01:02;;;;;;;;;35.00;32.50;;;;;23.36;54.23;101457.91;110251;1265;18633;-39
2023/09/09 07:03:29;;;;;;;;;32.00;31.00;;;;;23.59;53.76;101459.55;110191;1261;20119;-39
2023/09/09 07:05:57;;;;;;;;;40.00;34.00;;;;;23.70;53.05;101460.71;110200;1265;20699;-39
2023/09/09 07:08:24;;;;;;;;;31.00;30.00;;;;;23.75;53.00;101462.25;110208;1250;20015;-38
2023/09/09 07:10:52;;;;;;;;;34.00;33.00;;;;;23.79;52.82;101464.55;110225;1265;18977;-39
2023/09/09 07:13:19;;;;;;;;;37.00;34.00;;;;;23.78;52.60;101461.88;110195;1250;20760;-39
2023/09/09 07:15:46;;;;;;;;;32.00;29.00;;;;;23.82;52.51;101468.88;110190;1265;22209;-39
2023/09/09 07:18:14;;;;;;;;;33.00;30.00;;;;;23.91;52.14;101470.90;110225;1259;19988;-39
2023/09/09 07:20:42;;;;;;;;;32.00;31.50;;;;;24.01;52.05;101471.49;110255;1265;19383;-39
2023/09/09 07:23:09;;;;;;;;;31.00;30.00;;;;;24.11;51.93;101470.29;110240;1259;19932;-38
2023/09/09 07:25:37;;;;;;;;;28.00;28.00;;;;;24.11;51.84;101472.75;110205;1251;20163;-38
2023/09/09 07:28:04;;;;;;;;;33.50;32.00;;;;;24.08;51.91;101468.32;110254;1249;21937;-38
2023/09/09 07:30:31;;;;;;;;;33.33;30.33;;;;;23.98;52.02;101471.94;110215;1251;20364;-39
2023/09/09 07:32:58;;;;;;;;;30.00;28.00;;;;;23.97;52.12;101474.67;110219;1265;20095;-38
2023/09/09 07:35:26;;;;;;;;;29.00;27.00;;;;;24.11;51.88;101477.29;110224;1251;20936;-38
2023/09/09 07:37:53;;;;;;;;;32.50;30.50;;;;;24.16;51.77;101475.43;110213;1265;18566;-38
2023/09/09 07:40:20;;;;;;;;;29.00;28.00;;;;;24.22;51.45;101478.11;110226;1250;20203;-39
2023/09/09 07:42:48;;;;;;;;;29.00;26.00;;;;;24.26;51.54;101477.39;110246;1265;19456;-39
2023/09/09 07:45:15;;;;;;;;;31.50;30.00;;;;;24.35;51.59;101479.59;110283;1257;22955;-38
2023/09/09 07:47:43;;;;;;;;;29.00;29.00;;;;;24.42;51.42;101479.42;110210;1251;21627;-38
2023/09/09 07:50:10;;;;;;;;;32.00;29.67;;;;;24.40;51.57;101479.64;110194;1265;19328;-38
2023/09/09 07:52:37;;;;;;;;;32.00;29.00;;;;;24.35;51.77;101482.44;110124;1260;20960;-38
2023/09/09 07:55:05;;;;;;;;;26.00;26.00;;;;;24.33;51.69;101484.69;110196;1265;18859;-38
2023/09/09 07:57:32;;;;;;;;;31.00;29.00;;;;;24.39;51.67;101486.43;110265;1257;19348;-38
2023/09/09 07:59:59;;;;;;;;;32.00;29.00;;;;;24.34;51.58;101488.52;110101;1251;22853;-40
2023/09/09 08:02:27;;;;;;;;;32.00;29.00;;;;;24.39;51.76;101491.52;110116;1260;20454;-39
2023/09/09 08:04:54;;;;;;;;;36.00;32.00;;;;;24.49;51.41;101492.55;110151;1266;19328;-40
2023/09/09 08:07:21;;;;;;;;;38.00;36.00;;;;;24.58;51.44;101495.09;110174;1265;18740;-38
2023/09/09 08:09:49;;;;;;;;;33.00;32.00;;;;;24.71;51.32;101493.52;110189;1265;22182;-39
2023/09/09 08:12:17;;;;;;;;;34.00;32.00;;;;;24.65;51.35;101492.83;110165;1251;20787;-39
2023/09/09 08:14:44;;;;;;;;;36.00;33.00;;;;;24.66;51.30;101489.16;110144;1265;18586;-38
2023/09/09 08:17:11;;;;;;;;;37.00;36.00;;;;;24.73;51.17;101486.02;110160;1253;20095;-38
2023/09/09 08:19:39;;;;;;;;;36.00;33.00;;;;;24.68;51.08;101485.21;110139;1251;20767;-38
2023/09/09 08:22:06;;;;;;;;;34.00;32.00;;;;;24.72;51.11;101484.42;110181;1259;19850;-38
2023/09/09 08:24:33;;;;;;;;;32.50;32.00;;;;;24.74;51.10;101480.80;110167;1265;18725;-38
2023/09/09 08:27:01;;;;;;;;;32.00;29.00;;;;;24.73;51.28;101483.60;110181;1265;20709;-38
2023/09/09 08:29:28;;;;;;;;;29.00;28.00;;;;;24.82;51.00;101484.73;110186;1259;19947;-39
2023/09/09 08:31:55;;;;;;;;;30.00;29.00;;;;;24.82;51.34;101484.99;110160;1251;20162;-38
2023/09/09 08:34:23;;;;;;;;;27.00;26.50;;;;;24.83;51.22;101480.61;110177;1265;19297;-38
2023/09/09 08:36:50;;;;;;;;;30.50;28.00;;;;;24.87;51.24;101481.69;110173;1250;20014;-38
2023/09/09 08:39:19;;;;;;;;;31.50;30.50;;;;;24.87;51.00;101481.47;110191;1256;20151;-39
2023/09/09 08:41:46;;;;;;;;;29.67;27.00;;;;;24.99;50.95;101479.08;110169;1265;20654;-39
2023/09/09 08:44:14;;;;;;;;;30.00;29.00;;;;;25.04;50.91;101477.91;110179;1250;18781;-39
2023/09/09 08:46:41;;;;;;;;;33.50;30.50;;;;;25.00;51.02;101478.69;110204;1251;20234;-39
2023/09/09 08:49:08;;;;;;;;;37.00;31.00;;;;;25.01;50.92;101473.92;110171;1253;20886;-39
2023/09/09 08:51:36;;;;;;;;;26.00;26.00;;;;;25.03;51.09;101475.40;110123;1265;18616;-38
2023/09/09 08:54:03;;;;;;;;;30.00;28.00;;;;;25.01;51.00;101475.13;110107;1265;18752;-38
2023/09/09 08:56:30;;;;;;;;;32.00;30.50;;;;;25.05;51.07;101477.80;110136;1253;20767;-38
2023/09/09 08:58:58;;;;;;;;;33.00;29.67;;;;;25.17;51.13;101473.19;110174;1265;18953;-37
2023/09/09 09:01:25;;;;;;;;;26.50;24.00;;;;;25.19;51.40;101473.61;110180;1265;18673;-37
2023/09/09 09:03:53;;;;;;;;;23.00;22.50;;;;;25.17;51.84;101468.14;110159;1253;20840;-37
2023/09/09 09:06:20;;;;;;;;;22.50;21.00;;;;;25.13;52.39;101462.67;110158;1265;18603;-37
2023/09/09 09:08:48;;;;;;;;;29.00;23.00;;;;;25.16;52.51;101461.90;110182;1253;20049;-37
2023/09/09 09:11:16;;;;;;;;;21.50;21.00;;;;;25.18;52.87;101460.13;110150;1251;20796;-37
2023/09/09 09:13:43;;;;;;;;;23.00;19.00;;;;;25.23;52.55;101455.11;110170;1265;22432;-39
2023/09/09 09:16:11;;;;;;;;;21.00;19.00;;;;;25.27;52.72;101457.61;110199;1259;20132;-37
2023/09/09 09:18:38;;;;;;;;;16.00;15.00;;;;;25.30;52.56;101455.23;110141;1250;20987;-37
2023/09/09 09:21:06;;;;;;;;;18.00;17.00;;;;;25.30;52.56;101455.08;110177;1265;19961;-38
2023/09/09 09:23:33;;;;;;;;;17.50;17.00;;;;;25.30;52.95;101455.46;110196;1265;18700;-38
2023/09/09 09:26:01;;;;;;;;;17.00;15.00;;;;;25.30;52.78;101454.20;110155;1251;22198;-37
2023/09/09 09:28:28;;;;;;;;;16.00;15.00;;;;;25.31;53.07;101453.47;110176;1253;20267;-38
2023/09/09 09:30:56;;;;;;;;;13.00;13.00;;;;;25.32;53.10;101454.34;110095;1250;20085;-38
2023/09/09 09:33:23;;;;;;;;;13.00;11.67;;;;;25.34;53.25;101454.98;110162;1265;19292;-38
2023/09/09 09:35:50;;;;;;;;;14.67;14.33;;;;;25.34;53.20;101452.36;110103;1251;21311;-37
2023/09/09 09:38:18;;;;;;;;;15.67;13.67;;;;;25.34;53.36;101450.55;110162;1251;20156;-38
2023/09/09 09:40:45;;;;;;;;;53.00;46.50;;;;;25.35;53.35;101449.95;110067;1250;22084;-38
2023/09/09 09:43:12;;;;;;;;;48.00;43.00;;;;;25.25;53.56;101447.04;110165;1250;23855;-38
2023/09/09 09:45:40;;;;;;;;;76.33;63.33;;;;;25.08;54.44;101448.02;110161;1253;20138;-38
2023/09/09 09:48:07;;;;;;;;;69.00;57.00;;;;;25.10;54.59;101445.70;110155;1259;20664;-38
2023/09/09 09:50:35;;;;;;;;;53.50;45.50;;;;;25.16;54.46;101441.55;110147;1250;22181;-37
2023/09/09 09:53:03;;;;;;;;;44.00;40.00;;;;;25.15;54.44;101444.68;110175;1259;20154;-38
2023/09/09 09:55:30;;;;;;;;;30.33;29.67;;;;;25.15;54.53;101440.30;110155;1250;20879;-38
2023/09/09 09:57:57;;;;;;;;;28.50;26.00;;;;;25.13;54.81;101441.23;110162;1250;23207;-37
2023/09/09 10:00:25;;;;;;;;;22.00;21.00;;;;;25.09;54.72;101439.89;110159;1251;20216;-37
2023/09/09 10:02:52;;;;;;;;;17.00;15.00;;;;;25.09;54.80;101438.69;110163;1253;22126;-37
2023/09/09 10:05:19;;;;;;;;;17.00;15.00;;;;;25.09;54.74;101436.81;110119;1250;21752;-37
2023/09/09 10:07:47;;;;;;;;;11.00;10.00;;;;;25.18;54.47;101436.11;110163;1251;20201;-37
2023/09/09 10:10:14;;;;;;;;;13.00;11.00;;;;;25.36;54.22;101433.64;110184;1250;21839;-36
2023/09/09 10:12:42;;;;;;;;;14.00;13.00;;;;;25.40;54.02;101428.57;110142;1251;20276;-37
2023/09/09 10:15:09;;;;;;;;;13.00;13.00;;;;;25.39;53.54;101427.69;110155;1250;20138;-37
2023/09/09 10:17:37;;;;;;;;;11.00;11.00;;;;;25.41;53.65;101426.41;110172;1265;19314;-37
2023/09/09 10:20:05;;;;;;;;;14.00;13.00;;;;;25.44;53.63;101429.96;110147;1259;19906;-38
2023/09/09 10:22:32;;;;;;;;;13.00;13.00;;;;;25.44;53.52;101430.29;110144;1249;20023;-38
2023/09/09 10:24:59;;;;;;;;;10.00;9.00;;;;;25.43;53.43;101429.80;110158;1259;20639;-37
2023/09/09 10:27:27;;;;;;;;;10.00;10.00;;;;;25.44;53.41;101428.38;110138;1265;18631;-38
2023/09/09 10:29:54;;;;;;;;;9.00;7.00;;;;;25.46;53.65;101431.54;110150;1250;20192;-37
2023/09/09 10:32:22;;;;;;;;;9.00;9.00;;;;;25.46;53.62;101428.80;110153;1251;20784;-38
2023/09/09 10:34:49;;;;;;;;;10.00;9.00;;;;;25.46;53.51;101426.05;110166;1251;23547;-38
2023/09/09 10:37:16;;;;;;;;;8.00;8.00;;;;;25.45;53.68;101425.67;110150;1265;19187;-38
2023/09/09 10:39:44;;;;;;;;;8.33;7.00;;;;;25.45;53.68;101427.44;110133;1265;19581;-38
2023/09/09 10:42:11;;;;;;;;;7.00;7.00;;;;;25.44;53.76;101426.13;110146;1249;19629;-37
2023/09/09 10:44:39;;;;;;;;;7.00;7.00;;;;;25.43;53.49;101425.36;110161;1259;20402;-39
2023/09/09 10:47:06;;;;;;;;;6.00;6.00;;;;;25.42;53.67;101422.90;110157;1251;20730;-39
2023/09/09 10:49:33;;;;;;;;;8.00;7.00;;;;;25.41;53.44;101425.20;110172;1250;22712;-39
2023/09/09 10:52:00;;;;;;;;;6.00;6.00;;;;;25.41;53.55;101425.98;110143;1253;20036;-36
2023/09/09 10:54:28;;;;;;;;;6.00;6.00;;;;;25.41;53.61;101424.94;110160;1250;22355;-36
2023/09/09 10:56:55;;;;;;;;;7.00;7.00;;;;;25.41;53.71;101427.68;110157;1251;20622;-37
2023/09/09 10:59:22;;;;;;;;;5.00;5.00;;;;;25.41;53.55;101425.77;110165;1250;22852;-37
2023/09/09 11:01:50;;;;;;;;;6.33;6.00;;;;;25.43;53.41;101426.52;110139;1257;19360;-37